Shinka Maru — JD3630 — position and weather

sailwx.info

Track history (hours):
 
Tides and Currents Weather Stations Pressure Air Temp Water Temp Dewpoint Dewpoint Depression Visibility Wind Speed Wind Dir Waves Ship Positions

Shinka Maru

Last reported at 2017-Nov-23 05:00 UTC. Time now 2017-Nov-23 05:23 UTC.
Position N 35°38' E 139°46'.

Length 172 m; draft 6.8 m.

Type: Cargo ship. MMSI: 431005364.

Date/timePositionNaut miles runAvg speedWind from/ knotsBaromVisibWave heightAir tempDewpointWater temp
2017-Nov-23 05:00N 35°38' E 139°46'714.2
2017-Nov-23 04:31N 35°32' E 139°52'815.5
2017-Nov-23 04:00N 35°25' E 139°48'713.3
2017-Nov-23 03:30N 35°19' E 139°44'612.3
2017-Nov-23 03:00N 35°14' E 139°47'816.3
2017-Nov-23 02:31N 35°06' E 139°44'917.9
2017-Nov-23 02:00N 35°00' E 139°35'918.0
2017-Nov-23 01:29N 34°55' E 139°26'  
2017-Nov-16 13:12N 34°53' E 139°49'616.5
2017-Nov-16 12:51N 34°57' E 139°44'617.5
2017-Nov-16 12:31N 35°03' E 139°43'918.8
2017-Nov-16 12:00N 35°12' E 139°46'612.6
2017-Nov-16 11:30N 35°18' E 139°44'714.7
2017-Nov-16 11:01N 35°26' E 139°44'816.8
2017-Nov-16 10:31N 35°32' E 139°51'713.9
2017-Nov-16 09:59N 35°38' E 139°46'0 0.3
2017-Nov-16 09:29N 35°38' E 139°46'0 0.1
2017-Nov-16 08:53N 35°38' E 139°46'0 0.1
2017-Nov-16 08:23N 35°38' E 139°46'0 0.0
2017-Nov-16 06:17N 35°38' E 139°46'0 0.0
2017-Nov-16 06:00N 35°38' E 139°46'510.7
2017-Nov-16 05:30N 35°34' E 139°49'510.6
2017-Nov-16 05:00N 35°29' E 139°52'4 8.4
2017-Nov-16 04:30N 35°27' E 139°48'4 8.2
2017-Nov-16 04:00N 35°23' E 139°46'5 9.6
2017-Nov-16 03:30N 35°18' E 139°44'611.8
2017-Nov-16 03:00N 35°13' E 139°47'917.2
2017-Nov-16 02:30N 35°05' E 139°42'918.4
2017-Nov-16 02:00N 34°59' E 139°34'1019.0
2017-Nov-16 01:28N 34°53' E 139°23'22416.5
2017-Nov-15 11:51N 33°58' E 134°60'1420.0
2017-Nov-15 11:10N 34°12' E 134°59'519.6
2017-Nov-15 10:56N 34°16' E 134°59'817.9
2017-Nov-15 10:30N 34°23' E 135°02'918.8
2017-Nov-15 10:00N 34°29' E 135°11'918.9
2017-Nov-15 09:30N 34°35' E 135°20'4 8.1
2017-Nov-15 09:00N 34°37' E 135°25'0 0.0
2017-Nov-15 08:30N 34°37' E 135°25'0 0.0
2017-Nov-15 07:15N 34°37' E 135°25'0 0.0
2017-Nov-15 05:03N 34°37' E 135°25'0 0.0
2017-Nov-15 04:51N 34°37' E 135°25'0 0.0
2017-Nov-15 04:27N 34°37' E 135°25'0 0.0
2017-Nov-15 03:51N 34°37' E 135°25'0 0.0
2017-Nov-15 02:45N 34°37' E 135°25'0 0.0
2017-Nov-15 02:27N 34°37' E 135°25'0 0.0
2017-Nov-15 01:21N 34°37' E 135°25'0 0.0
2017-Nov-15 00:56N 34°37' E 135°25'0 1.1
2017-Nov-15 00:30N 34°37' E 135°24'815.9
2017-Nov-15 00:00N 34°33' E 135°16'917.7
2017-Nov-14 23:30N 34°26' E 135°08'917.8
2017-Nov-14 22:59N 34°19' E 135°01'919.1
2017-Nov-14 22:30N 34°10' E 134°59'1019.5
2017-Nov-14 22:01N 34°01' E 134°59'23116.6
2017-Nov-14 08:06N 34°58' E 139°31'219.2
2017-Nov-14 08:00N 34°59' E 139°33'1019.4
2017-Nov-14 07:30N 35°06' E 139°41'917.9
2017-Nov-14 07:00N 35°13' E 139°46'612.4
2017-Nov-14 06:30N 35°19' E 139°43'815.1
2017-Nov-14 06:01N 35°26' E 139°45'815.5
2017-Nov-14 05:30N 35°33' E 139°51'6 3.5
2017-Nov-14 03:44N 35°38' E 139°46'0 0.0
2017-Nov-13 22:14N 35°38' E 139°46'0 0.0
2017-Nov-13 21:56N 35°38' E 139°46'  
Track history (hours):
 
Tides and Currents Weather Stations Pressure Air Temp Water Temp Dewpoint Dewpoint Depression Visibility Wind Speed Wind Dir Waves Ship Positions

Shinka Maru

Last reported at 2017-Nov-23 05:00 UTC. Time now 2017-Nov-23 05:23 UTC.
Position N 35°38' E 139°46'.

Length 172 m; draft 6.8 m.

Type: Cargo ship. MMSI: 431005364.

Date/timePositionNaut miles runAvg speedWind from/ knotsBaromVisibWave heightAir tempDewpointWater temp
2017-Nov-23 05:00N 35°38' E 139°46'714.2
2017-Nov-23 04:31N 35°32' E 139°52'815.5
2017-Nov-23 04:00N 35°25' E 139°48'713.3
2017-Nov-23 03:30N 35°19' E 139°44'612.3
2017-Nov-23 03:00N 35°14' E 139°47'816.3
2017-Nov-23 02:31N 35°06' E 139°44'917.9
2017-Nov-23 02:00N 35°00' E 139°35'918.0
2017-Nov-23 01:29N 34°55' E 139°26'  
2017-Nov-16 13:12N 34°53' E 139°49'616.5
2017-Nov-16 12:51N 34°57' E 139°44'617.5
2017-Nov-16 12:31N 35°03' E 139°43'918.8
2017-Nov-16 12:00N 35°12' E 139°46'612.6
2017-Nov-16 11:30N 35°18' E 139°44'714.7
2017-Nov-16 11:01N 35°26' E 139°44'816.8
2017-Nov-16 10:31N 35°32' E 139°51'713.9
2017-Nov-16 09:59N 35°38' E 139°46'0 0.3
2017-Nov-16 09:29N 35°38' E 139°46'0 0.1
2017-Nov-16 08:53N 35°38' E 139°46'0 0.1
2017-Nov-16 08:23N 35°38' E 139°46'0 0.0
2017-Nov-16 06:17N 35°38' E 139°46'0 0.0
2017-Nov-16 06:00N 35°38' E 139°46'510.7
2017-Nov-16 05:30N 35°34' E 139°49'510.6
2017-Nov-16 05:00N 35°29' E 139°52'4 8.4
2017-Nov-16 04:30N 35°27' E 139°48'4 8.2
2017-Nov-16 04:00N 35°23' E 139°46'5 9.6
2017-Nov-16 03:30N 35°18' E 139°44'611.8
2017-Nov-16 03:00N 35°13' E 139°47'917.2
2017-Nov-16 02:30N 35°05' E 139°42'918.4
2017-Nov-16 02:00N 34°59' E 139°34'1019.0
2017-Nov-16 01:28N 34°53' E 139°23'22416.5
2017-Nov-15 11:51N 33°58' E 134°60'1420.0
2017-Nov-15 11:10N 34°12' E 134°59'519.6
2017-Nov-15 10:56N 34°16' E 134°59'817.9
2017-Nov-15 10:30N 34°23' E 135°02'918.8
2017-Nov-15 10:00N 34°29' E 135°11'918.9
2017-Nov-15 09:30N 34°35' E 135°20'4 8.1
2017-Nov-15 09:00N 34°37' E 135°25'0 0.0
2017-Nov-15 08:30N 34°37' E 135°25'0 0.0
2017-Nov-15 07:15N 34°37' E 135°25'0 0.0
2017-Nov-15 05:03N 34°37' E 135°25'0 0.0
2017-Nov-15 04:51N 34°37' E 135°25'0 0.0
2017-Nov-15 04:27N 34°37' E 135°25'0 0.0
2017-Nov-15 03:51N 34°37' E 135°25'0 0.0
2017-Nov-15 02:45N 34°37' E 135°25'0 0.0
2017-Nov-15 02:27N 34°37' E 135°25'0 0.0
2017-Nov-15 01:21N 34°37' E 135°25'0 0.0
2017-Nov-15 00:56N 34°37' E 135°25'0 1.1
2017-Nov-15 00:30N 34°37' E 135°24'815.9
2017-Nov-15 00:00N 34°33' E 135°16'917.7
2017-Nov-14 23:30N 34°26' E 135°08'917.8
2017-Nov-14 22:59N 34°19' E 135°01'919.1
2017-Nov-14 22:30N 34°10' E 134°59'1019.5
2017-Nov-14 22:01N 34°01' E 134°59'23116.6
2017-Nov-14 08:06N 34°58' E 139°31'219.2
2017-Nov-14 08:00N 34°59' E 139°33'1019.4
2017-Nov-14 07:30N 35°06' E 139°41'917.9
2017-Nov-14 07:00N 35°13' E 139°46'612.4
2017-Nov-14 06:30N 35°19' E 139°43'815.1
2017-Nov-14 06:01N 35°26' E 139°45'815.5
2017-Nov-14 05:30N 35°33' E 139°51'6 3.5
2017-Nov-14 03:44N 35°38' E 139°46'0 0.0
2017-Nov-13 22:14N 35°38' E 139°46'0 0.0
2017-Nov-13 21:56N 35°38' E 139°46'  

Dump ship's entire track history